sensor_id;sensor_type;location;lat;lon;timestamp;temperature;humidity
47520;DHT22;33252;48.122;11.538;2024-02-15T00:00:35;9.20;97.60
47520;DHT22;33252;48.122;11.538;2024-02-15T00:03:01;9.20;97.50
47520;DHT22;33252;48.122;11.538;2024-02-15T00:05:26;9.10;97.50
47520;DHT22;33252;48.122;11.538;2024-02-15T00:07:52;9.20;97.50
47520;DHT22;33252;48.122;11.538;2024-02-15T00:10:18;9.10;97.50
47520;DHT22;33252;48.122;11.538;2024-02-15T00:12:46;9.10;97.50
47520;DHT22;33252;48.122;11.538;2024-02-15T00:15:13;9.10;97.40
47520;DHT22;33252;48.122;11.538;2024-02-15T00:17:38;9.10;97.40
47520;DHT22;33252;48.122;11.538;2024-02-15T00:20:04;9.10;97.40
47520;DHT22;33252;48.122;11.538;2024-02-15T00:22:35;9.10;97.50
47520;DHT22;33252;48.122;11.538;2024-02-15T00:25:01;9.10;97.50
47520;DHT22;33252;48.122;11.538;2024-02-15T00:27:27;9.10;97.50
47520;DHT22;33252;48.122;11.538;2024-02-15T00:29:52;9.00;97.40
47520;DHT22;33252;48.122;11.538;2024-02-15T00:32:18;9.00;97.40
47520;DHT22;33252;48.122;11.538;2024-02-15T00:34:43;9.00;97.40
47520;DHT22;33252;48.122;11.538;2024-02-15T00:37:09;9.10;97.40
47520;DHT22;33252;48.122;11.538;2024-02-15T00:39:34;9.00;97.40
47520;DHT22;33252;48.122;11.538;2024-02-15T00:42:00;9.10;97.50
47520;DHT22;33252;48.122;11.538;2024-02-15T00:44:26;9.10;97.40
47520;DHT22;33252;48.122;11.538;2024-02-15T00:46:52;9.10;97.50
47520;DHT22;33252;48.122;11.538;2024-02-15T00:49:17;9.00;97.50
47520;DHT22;33252;48.122;11.538;2024-02-15T00:51:45;9.00;97.40
47520;DHT22;33252;48.122;11.538;2024-02-15T00:54:11;9.10;97.50
47520;DHT22;33252;48.122;11.538;2024-02-15T00:56:36;9.00;97.50
47520;DHT22;33252;48.122;11.538;2024-02-15T00:59:02;9.00;97.50
47520;DHT22;33252;48.122;11.538;2024-02-15T01:01:28;9.00;97.50
47520;DHT22;33252;48.122;11.538;2024-02-15T01:03:54;9.00;97.60
47520;DHT22;33252;48.122;11.538;2024-02-15T01:06:20;9.00;97.50
47520;DHT22;33252;48.122;11.538;2024-02-15T01:08:45;9.00;97.50
47520;DHT22;33252;48.122;11.538;2024-02-15T01:11:11;9.10;97.60
47520;DHT22;33252;48.122;11.538;2024-02-15T01:13:36;9.10;97.40
47520;DHT22;33252;48.122;11.538;2024-02-15T01:16:02;9.10;97.40
47520;DHT22;33252;48.122;11.538;2024-02-15T01:18:29;9.00;97.40
47520;DHT22;33252;48.122;11.538;2024-02-15T01:20:55;9.00;97.40
47520;DHT22;33252;48.122;11.538;2024-02-15T01:23:21;9.00;97.60
47520;DHT22;33252;48.122;11.538;2024-02-15T01:25:48;9.00;97.40
47520;DHT22;33252;48.122;11.538;2024-02-15T01:28:13;9.00;97.40
47520;DHT22;33252;48.122;11.538;2024-02-15T01:30:39;9.00;97.50
47520;DHT22;33252;48.122;11.538;2024-02-15T01:33:04;8.90;97.40
47520;DHT22;33252;48.122;11.538;2024-02-15T01:35:30;9.00;97.50
47520;DHT22;33252;48.122;11.538;2024-02-15T01:37:56;9.00;97.50
47520;DHT22;33252;48.122;11.538;2024-02-15T01:40:21;9.00;97.60
47520;DHT22;33252;48.122;11.538;2024-02-15T01:42:47;8.90;97.50
47520;DHT22;33252;48.122;11.538;2024-02-15T01:45:15;8.90;97.50
47520;DHT22;33252;48.122;11.538;2024-02-15T01:47:42;8.90;97.60
47520;DHT22;33252;48.122;11.538;2024-02-15T01:50:10;8.90;97.60
47520;DHT22;33252;48.122;11.538;2024-02-15T01:52:37;8.80;97.60
47520;DHT22;33252;48.122;11.538;2024-02-15T01:55:03;8.80;97.60
47520;DHT22;33252;48.122;11.538;2024-02-15T01:57:36;8.80;97.70
47520;DHT22;33252;48.122;11.538;2024-02-15T02:00:06;8.80;97.80
47520;DHT22;33252;48.122;11.538;2024-02-15T02:02:34;8.80;97.70
47520;DHT22;33252;48.122;11.538;2024-02-15T02:05:01;8.80;97.70
47520;DHT22;33252;48.122;11.538;2024-02-15T02:07:27;8.80;97.70
47520;DHT22;33252;48.122;11.538;2024-02-15T02:09:53;8.80;97.80
47520;DHT22;33252;48.122;11.538;2024-02-15T02:12:18;8.80;97.80
47520;DHT22;33252;48.122;11.538;2024-02-15T02:14:44;8.80;97.80
47520;DHT22;33252;48.122;11.538;2024-02-15T02:17:13;8.80;97.80
47520;DHT22;33252;48.122;11.538;2024-02-15T02:19:39;8.90;97.70
47520;DHT22;33252;48.122;11.538;2024-02-15T02:22:05;8.80;97.70
47520;DHT22;33252;48.122;11.538;2024-02-15T02:24:33;8.80;97.70
47520;DHT22;33252;48.122;11.538;2024-02-15T02:27:05;8.80;97.70
47520;DHT22;33252;48.122;11.538;2024-02-15T02:29:30;8.80;97.70
47520;DHT22;33252;48.122;11.538;2024-02-15T02:31:57;8.80;97.70
47520;DHT22;33252;48.122;11.538;2024-02-15T02:34:22;8.80;97.70
47520;DHT22;33252;48.122;11.538;2024-02-15T02:36:48;8.80;97.60
47520;DHT22;33252;48.122;11.538;2024-02-15T02:39:15;8.80;97.60
47520;DHT22;33252;48.122;11.538;2024-02-15T02:41:42;8.80;97.50
47520;DHT22;33252;48.122;11.538;2024-02-15T02:44:08;8.90;97.60
47520;DHT22;33252;48.122;11.538;2024-02-15T02:46:33;8.80;97.50
47520;DHT22;33252;48.122;11.538;2024-02-15T02:48:59;8.80;97.50
47520;DHT22;33252;48.122;11.538;2024-02-15T02:51:24;8.80;97.50
47520;DHT22;33252;48.122;11.538;2024-02-15T02:53:50;8.80;97.50
47520;DHT22;33252;48.122;11.538;2024-02-15T02:56:15;8.80;97.50
47520;DHT22;33252;48.122;11.538;2024-02-15T02:58:41;8.80;97.50
47520;DHT22;33252;48.122;11.538;2024-02-15T03:01:10;8.80;97.60
47520;DHT22;33252;48.122;11.538;2024-02-15T03:03:36;8.80;97.60
47520;DHT22;33252;48.122;11.538;2024-02-15T03:06:04;8.80;97.70
47520;DHT22;33252;48.122;11.538;2024-02-15T03:08:30;8.80;97.80
47520;DHT22;33252;48.122;11.538;2024-02-15T03:10:55;8.70;97.70
47520;DHT22;33252;48.122;11.538;2024-02-15T03:13:21;8.70;97.80
47520;DHT22;33252;48.122;11.538;2024-02-15T03:15:46;8.70;97.90
47520;DHT22;33252;48.122;11.538;2024-02-15T03:18:17;8.70;97.70
47520;DHT22;33252;48.122;11.538;2024-02-15T03:20:43;8.70;97.70
47520;DHT22;33252;48.122;11.538;2024-02-15T03:23:09;8.70;97.80
47520;DHT22;33252;48.122;11.538;2024-02-15T03:25:34;8.70;97.90
47520;DHT22;33252;48.122;11.538;2024-02-15T03:28:00;8.70;97.70
47520;DHT22;33252;48.122;11.538;2024-02-15T03:30:31;8.70;97.70
47520;DHT22;33252;48.122;11.538;2024-02-15T03:32:58;8.70;97.70
47520;DHT22;33252;48.122;11.538;2024-02-15T03:35:27;8.70;97.60
47520;DHT22;33252;48.122;11.538;2024-02-15T03:37:54;8.70;97.60
47520;DHT22;33252;48.122;11.538;2024-02-15T03:40:20;8.60;97.80
47520;DHT22;33252;48.122;11.538;2024-02-15T03:42:46;8.70;97.90
47520;DHT22;33252;48.122;11.538;2024-02-15T03:45:12;8.70;97.80
47520;DHT22;33252;48.122;11.538;2024-02-15T03:47:38;8.60;98.10
47520;DHT22;33252;48.122;11.538;2024-02-15T03:50:08;8.60;98.40
47520;DHT22;33252;48.122;11.538;2024-02-15T03:52:35;8.40;98.80
47520;DHT22;33252;48.122;11.538;2024-02-15T03:55:01;8.30;99.10
47520;DHT22;33252;48.122;11.538;2024-02-15T03:57:27;8.30;99.20
47520;DHT22;33252;48.122;11.538;2024-02-15T03:59:53;8.30;98.90
47520;DHT22;33252;48.122;11.538;2024-02-15T04:02:22;8.30;98.60
47520;DHT22;33252;48.122;11.538;2024-02-15T04:04:49;8.30;98.40
47520;DHT22;33252;48.122;11.538;2024-02-15T04:07:18;8.30;98.80
47520;DHT22;33252;48.122;11.538;2024-02-15T04:09:44;8.30;98.90
47520;DHT22;33252;48.122;11.538;2024-02-15T04:12:10;8.20;98.90
47520;DHT22;33252;48.122;11.538;2024-02-15T04:14:37;8.20;98.90
47520;DHT22;33252;48.122;11.538;2024-02-15T04:17:04;8.20;98.90
47520;DHT22;33252;48.122;11.538;2024-02-15T04:19:31;8.10;99.00
47520;DHT22;33252;48.122;11.538;2024-02-15T04:21:56;8.10;99.00
47520;DHT22;33252;48.122;11.538;2024-02-15T04:24:22;8.00;99.20
47520;DHT22;33252;48.122;11.538;2024-02-15T04:26:48;8.00;99.30
47520;DHT22;33252;48.122;11.538;2024-02-15T04:29:14;7.90;99.20
47520;DHT22;33252;48.122;11.538;2024-02-15T04:31:41;7.90;99.50
47520;DHT22;33252;48.122;11.538;2024-02-15T04:34:08;7.90;99.40
47520;DHT22;33252;48.122;11.538;2024-02-15T04:36:35;7.90;99.20
47520;DHT22;33252;48.122;11.538;2024-02-15T04:39:00;7.90;99.40
47520;DHT22;33252;48.122;11.538;2024-02-15T04:41:28;7.80;99.30
47520;DHT22;33252;48.122;11.538;2024-02-15T04:43:54;7.70;99.50
47520;DHT22;33252;48.122;11.538;2024-02-15T04:46:20;7.70;99.70
47520;DHT22;33252;48.122;11.538;2024-02-15T04:48:48;7.70;99.60
47520;DHT22;33252;48.122;11.538;2024-02-15T04:51:17;7.70;99.50
47520;DHT22;33252;48.122;11.538;2024-02-15T04:53:46;7.70;99.40
47520;DHT22;33252;48.122;11.538;2024-02-15T04:56:12;7.70;99.30
47520;DHT22;33252;48.122;11.538;2024-02-15T04:58:42;7.60;99.20
47520;DHT22;33252;48.122;11.538;2024-02-15T05:01:14;7.60;99.30
47520;DHT22;33252;48.122;11.538;2024-02-15T05:03:44;7.60;99.40
47520;DHT22;33252;48.122;11.538;2024-02-15T05:06:10;7.50;99.60
47520;DHT22;33252;48.122;11.538;2024-02-15T05:08:38;7.40;99.70
47520;DHT22;33252;48.122;11.538;2024-02-15T05:11:11;7.40;99.50
47520;DHT22;33252;48.122;11.538;2024-02-15T05:13:48;7.30;99.60
47520;DHT22;33252;48.122;11.538;2024-02-15T05:16:16;7.30;99.80
47520;DHT22;33252;48.122;11.538;2024-02-15T05:18:42;7.20;99.70
47520;DHT22;33252;48.122;11.538;2024-02-15T05:21:07;7.20;99.30
47520;DHT22;33252;48.122;11.538;2024-02-15T05:23:36;7.20;99.80
47520;DHT22;33252;48.122;11.538;2024-02-15T05:26:08;7.20;99.90
47520;DHT22;33252;48.122;11.538;2024-02-15T05:28:35;7.10;99.90
47520;DHT22;33252;48.122;11.538;2024-02-15T05:31:12;7.10;99.90
47520;DHT22;33252;48.122;11.538;2024-02-15T05:33:48;7.20;99.90
47520;DHT22;33252;48.122;11.538;2024-02-15T05:36:15;7.00;99.90
47520;DHT22;33252;48.122;11.538;2024-02-15T05:38:41;7.10;99.70
47520;DHT22;33252;48.122;11.538;2024-02-15T05:41:07;7.20;99.40
47520;DHT22;33252;48.122;11.538;2024-02-15T05:43:34;7.20;99.60
47520;DHT22;33252;48.122;11.538;2024-02-15T05:46:02;7.10;99.50
47520;DHT22;33252;48.122;11.538;2024-02-15T05:48:28;7.20;99.40
47520;DHT22;33252;48.122;11.538;2024-02-15T05:50:55;7.10;99.40
47520;DHT22;33252;48.122;11.538;2024-02-15T05:53:21;7.10;99.10
47520;DHT22;33252;48.122;11.538;2024-02-15T05:55:47;7.10;99.20
47520;DHT22;33252;48.122;11.538;2024-02-15T05:58:15;7.10;99.30
47520;DHT22;33252;48.122;11.538;2024-02-15T06:00:41;7.10;99.30
47520;DHT22;33252;48.122;11.538;2024-02-15T06:03:06;7.10;99.20
47520;DHT22;33252;48.122;11.538;2024-02-15T06:05:34;6.90;99.50
47520;DHT22;33252;48.122;11.538;2024-02-15T06:08:00;7.00;99.50
47520;DHT22;33252;48.122;11.538;2024-02-15T06:10:26;7.00;99.50
47520;DHT22;33252;48.122;11.538;2024-02-15T06:12:52;6.90;99.40
47520;DHT22;33252;48.122;11.538;2024-02-15T06:15:17;6.80;99.70
47520;DHT22;33252;48.122;11.538;2024-02-15T06:17:44;6.80;99.60
47520;DHT22;33252;48.122;11.538;2024-02-15T06:20:13;6.70;99.80
47520;DHT22;33252;48.122;11.538;2024-02-15T06:22:47;6.70;99.80
47520;DHT22;33252;48.122;11.538;2024-02-15T06:25:15;6.80;99.80
47520;DHT22;33252;48.122;11.538;2024-02-15T06:27:46;6.70;99.80
47520;DHT22;33252;48.122;11.538;2024-02-15T06:30:12;6.70;99.90
47520;DHT22;33252;48.122;11.538;2024-02-15T06:32:57;6.70;99.80
47520;DHT22;33252;48.122;11.538;2024-02-15T06:35:42;6.80;99.60
47520;DHT22;33252;48.122;11.538;2024-02-15T06:38:26;6.90;99.80
47520;DHT22;33252;48.122;11.538;2024-02-15T06:41:10;6.90;99.70
47520;DHT22;33252;48.122;11.538;2024-02-15T06:43:36;7.00;99.50
47520;DHT22;33252;48.122;11.538;2024-02-15T06:46:05;7.10;99.20
47520;DHT22;33252;48.122;11.538;2024-02-15T06:48:31;7.10;99.40
47520;DHT22;33252;48.122;11.538;2024-02-15T06:50:57;7.10;99.20
47520;DHT22;33252;48.122;11.538;2024-02-15T06:53:22;7.30;99.00
47520;DHT22;33252;48.122;11.538;2024-02-15T06:55:48;7.30;98.90
47520;DHT22;33252;48.122;11.538;2024-02-15T06:58:17;7.30;98.80
47520;DHT22;33252;48.122;11.538;2024-02-15T07:00:43;7.40;98.80
47520;DHT22;33252;48.122;11.538;2024-02-15T07:03:09;7.40;98.70
47520;DHT22;33252;48.122;11.538;2024-02-15T07:05:36;7.40;98.60
47520;DHT22;33252;48.122;11.538;2024-02-15T07:08:04;7.50;98.60
47520;DHT22;33252;48.122;11.538;2024-02-15T07:10:30;7.50;98.40
47520;DHT22;33252;48.122;11.538;2024-02-15T07:12:57;7.60;98.40
47520;DHT22;33252;48.122;11.538;2024-02-15T07:15:22;7.60;98.30
47520;DHT22;33252;48.122;11.538;2024-02-15T07:17:48;7.70;98.30
47520;DHT22;33252;48.122;11.538;2024-02-15T07:20:13;7.60;98.20
47520;DHT22;33252;48.122;11.538;2024-02-15T07:22:43;7.60;98.20
47520;DHT22;33252;48.122;11.538;2024-02-15T07:25:09;7.70;98.20
47520;DHT22;33252;48.122;11.538;2024-02-15T07:27:35;7.80;97.90
47520;DHT22;33252;48.122;11.538;2024-02-15T07:30:02;7.90;97.80
47520;DHT22;33252;48.122;11.538;2024-02-15T07:32:29;7.90;97.70
47520;DHT22;33252;48.122;11.538;2024-02-15T07:34:57;8.00;97.80
47520;DHT22;33252;48.122;11.538;2024-02-15T07:37:22;8.00;97.60
47520;DHT22;33252;48.122;11.538;2024-02-15T07:39:51;8.00;97.40
47520;DHT22;33252;48.122;11.538;2024-02-15T07:42:17;8.10;97.50
47520;DHT22;33252;48.122;11.538;2024-02-15T07:44:42;8.10;97.30
47520;DHT22;33252;48.122;11.538;2024-02-15T07:47:08;8.10;97.20
47520;DHT22;33252;48.122;11.538;2024-02-15T07:49:36;8.20;97.30
47520;DHT22;33252;48.122;11.538;2024-02-15T07:52:02;8.20;97.10
47520;DHT22;33252;48.122;11.538;2024-02-15T07:54:30;8.20;97.00
47520;DHT22;33252;48.122;11.538;2024-02-15T07:56:56;8.30;96.90
47520;DHT22;33252;48.122;11.538;2024-02-15T07:59:23;8.30;97.00
47520;DHT22;33252;48.122;11.538;2024-02-15T08:01:49;8.30;96.90
47520;DHT22;33252;48.122;11.538;2024-02-15T08:04:16;8.40;96.80
47520;DHT22;33252;48.122;11.538;2024-02-15T08:06:43;8.40;96.80
47520;DHT22;33252;48.122;11.538;2024-02-15T08:09:09;8.50;96.60
47520;DHT22;33252;48.122;11.538;2024-02-15T08:11:39;8.50;96.60
47520;DHT22;33252;48.122;11.538;2024-02-15T08:14:05;8.50;96.40
47520;DHT22;33252;48.122;11.538;2024-02-15T08:16:33;8.60;96.30
47520;DHT22;33252;48.122;11.538;2024-02-15T08:19:00;8.70;96.30
47520;DHT22;33252;48.122;11.538;2024-02-15T08:21:30;8.70;96.20
47520;DHT22;33252;48.122;11.538;2024-02-15T08:24:02;8.80;96.20
47520;DHT22;33252;48.122;11.538;2024-02-15T08:26:32;8.80;96.00
47520;DHT22;33252;48.122;11.538;2024-02-15T08:28:58;8.80;96.10
47520;DHT22;33252;48.122;11.538;2024-02-15T08:31:24;8.90;95.90
47520;DHT22;33252;48.122;11.538;2024-02-15T08:33:49;9.00;96.10
47520;DHT22;33252;48.122;11.538;2024-02-15T08:36:15;9.00;96.10
47520;DHT22;33252;48.122;11.538;2024-02-15T08:38:41;9.10;96.00
47520;DHT22;33252;48.122;11.538;2024-02-15T08:41:06;9.20;95.80
47520;DHT22;33252;48.122;11.538;2024-02-15T08:43:33;9.20;95.70
47520;DHT22;33252;48.122;11.538;2024-02-15T08:45:59;9.30;95.80
47520;DHT22;33252;48.122;11.538;2024-02-15T08:48:25;9.40;95.90
47520;DHT22;33252;48.122;11.538;2024-02-15T08:50:53;9.40;95.90
47520;DHT22;33252;48.122;11.538;2024-02-15T08:53:19;9.60;95.40
47520;DHT22;33252;48.122;11.538;2024-02-15T08:55:45;9.70;95.40
47520;DHT22;33252;48.122;11.538;2024-02-15T08:58:11;9.80;95.30
47520;DHT22;33252;48.122;11.538;2024-02-15T09:00:36;9.80;94.90
47520;DHT22;33252;48.122;11.538;2024-02-15T09:03:06;9.90;94.70
47520;DHT22;33252;48.122;11.538;2024-02-15T09:05:32;10.10;94.60
47520;DHT22;33252;48.122;11.538;2024-02-15T09:07:58;10.10;94.80
47520;DHT22;33252;48.122;11.538;2024-02-15T09:10:23;10.20;94.60
47520;DHT22;33252;48.122;11.538;2024-02-15T09:12:49;10.30;94.40
47520;DHT22;33252;48.122;11.538;2024-02-15T09:15:15;10.40;94.60
47520;DHT22;33252;48.122;11.538;2024-02-15T09:17:41;10.40;94.40
47520;DHT22;33252;48.122;11.538;2024-02-15T09:20:10;10.50;94.20
47520;DHT22;33252;48.122;11.538;2024-02-15T09:22:47;10.50;94.10
47520;DHT22;33252;48.122;11.538;2024-02-15T09:25:12;10.60;94.00
47520;DHT22;33252;48.122;11.538;2024-02-15T09:27:39;10.70;94.00
47520;DHT22;33252;48.122;11.538;2024-02-15T09:30:05;10.80;94.20
47520;DHT22;33252;48.122;11.538;2024-02-15T09:32:38;11.00;94.20
47520;DHT22;33252;48.122;11.538;2024-02-15T09:35:04;11.10;94.40
47520;DHT22;33252;48.122;11.538;2024-02-15T09:37:36;11.00;93.90
47520;DHT22;33252;48.122;11.538;2024-02-15T09:40:07;11.20;93.80
47520;DHT22;33252;48.122;11.538;2024-02-15T09:42:35;11.30;93.50
47520;DHT22;33252;48.122;11.538;2024-02-15T09:45:01;11.30;93.70
47520;DHT22;33252;48.122;11.538;2024-02-15T09:47:35;11.40;93.80
47520;DHT22;33252;48.122;11.538;2024-02-15T09:50:06;11.50;93.60
47520;DHT22;33252;48.122;11.538;2024-02-15T09:52:32;11.40;93.40
47520;DHT22;33252;48.122;11.538;2024-02-15T09:55:02;11.50;94.00
47520;DHT22;33252;48.122;11.538;2024-02-15T09:57:29;11.50;94.20
47520;DHT22;33252;48.122;11.538;2024-02-15T09:59:57;11.60;95.00
47520;DHT22;33252;48.122;11.538;2024-02-15T10:02:24;11.60;94.90
47520;DHT22;33252;48.122;11.538;2024-02-15T10:04:51;11.60;94.80
47520;DHT22;33252;48.122;11.538;2024-02-15T10:07:17;11.80;95.00
47520;DHT22;33252;48.122;11.538;2024-02-15T10:09:43;11.90;95.30
47520;DHT22;33252;48.122;11.538;2024-02-15T10:12:09;11.90;94.80
47520;DHT22;33252;48.122;11.538;2024-02-15T10:14:35;12.00;94.80
47520;DHT22;33252;48.122;11.538;2024-02-15T10:17:07;12.00;94.80
47520;DHT22;33252;48.122;11.538;2024-02-15T10:19:37;12.00;94.40
47520;DHT22;33252;48.122;11.538;2024-02-15T10:22:07;12.00;94.30
47520;DHT22;33252;48.122;11.538;2024-02-15T10:24:33;12.10;94.30
47520;DHT22;33252;48.122;11.538;2024-02-15T10:27:03;12.20;93.90
47520;DHT22;33252;48.122;11.538;2024-02-15T10:29:30;12.30;93.80
47520;DHT22;33252;48.122;11.538;2024-02-15T10:32:00;12.30;94.10
47520;DHT22;33252;48.122;11.538;2024-02-15T10:34:26;12.30;94.40
47520;DHT22;33252;48.122;11.538;2024-02-15T10:37:16;12.40;93.70
47520;DHT22;33252;48.122;11.538;2024-02-15T10:39:45;12.50;94.00
47520;DHT22;33252;48.122;11.538;2024-02-15T10:42:12;12.50;93.80
47520;DHT22;33252;48.122;11.538;2024-02-15T10:44:39;12.50;93.70
47520;DHT22;33252;48.122;11.538;2024-02-15T10:47:06;12.70;93.80
47520;DHT22;33252;48.122;11.538;2024-02-15T10:49:34;12.70;93.10
47520;DHT22;33252;48.122;11.538;2024-02-15T10:52:01;12.80;93.60
47520;DHT22;33252;48.122;11.538;2024-02-15T10:54:43;12.80;93.10
47520;DHT22;33252;48.122;11.538;2024-02-15T10:57:12;12.90;93.10
47520;DHT22;33252;48.122;11.538;2024-02-15T10:59:57;12.90;93.30
47520;DHT22;33252;48.122;11.538;2024-02-15T11:02:38;12.90;93.50
47520;DHT22;33252;48.122;11.538;2024-02-15T11:05:08;13.00;93.60
47520;DHT22;33252;48.122;11.538;2024-02-15T11:07:36;13.20;93.80
47520;DHT22;33252;48.122;11.538;2024-02-15T11:10:03;13.10;93.90
47520;DHT22;33252;48.122;11.538;2024-02-15T11:12:33;13.20;93.80
47520;DHT22;33252;48.122;11.538;2024-02-15T11:15:00;13.20;93.70
47520;DHT22;33252;48.122;11.538;2024-02-15T11:20:06;13.30;94.10
47520;DHT22;33252;48.122;11.538;2024-02-15T11:22:36;13.30;94.00
47520;DHT22;33252;48.122;11.538;2024-02-15T11:25:03;13.30;93.90
47520;DHT22;33252;48.122;11.538;2024-02-15T11:27:38;13.30;93.90
47520;DHT22;33252;48.122;11.538;2024-02-15T11:30:06;13.40;93.80
47520;DHT22;33252;48.122;11.538;2024-02-15T11:32:44;13.60;94.00
47520;DHT22;33252;48.122;11.538;2024-02-15T11:35:11;13.60;93.50
47520;DHT22;33252;48.122;11.538;2024-02-15T11:43:09;14.00;93.20
47520;DHT22;33252;48.122;11.538;2024-02-15T11:45:36;14.00;93.00
47520;DHT22;33252;48.122;11.538;2024-02-15T11:48:10;14.00;93.10
47520;DHT22;33252;48.122;11.538;2024-02-15T11:50:37;14.10;92.90
47520;DHT22;33252;48.122;11.538;2024-02-15T11:53:04;14.10;92.60
47520;DHT22;33252;48.122;11.538;2024-02-15T11:55:37;14.10;92.10
47520;DHT22;33252;48.122;11.538;2024-02-15T11:58:04;14.20;92.50
47520;DHT22;33252;48.122;11.538;2024-02-15T12:00:37;14.20;92.10
47520;DHT22;33252;48.122;11.538;2024-02-15T12:03:22;14.20;92.20
47520;DHT22;33252;48.122;11.538;2024-02-15T12:06:07;14.20;91.80
47520;DHT22;33252;48.122;11.538;2024-02-15T12:08:52;14.30;91.70
47520;DHT22;33252;48.122;11.538;2024-02-15T12:11:36;14.40;91.80
47520;DHT22;33252;48.122;11.538;2024-02-15T12:14:21;14.50;91.80
47520;DHT22;33252;48.122;11.538;2024-02-15T12:17:06;14.50;91.20
47520;DHT22;33252;48.122;11.538;2024-02-15T12:19:52;14.50;91.40
47520;DHT22;33252;48.122;11.538;2024-02-15T12:24:59;14.60;91.30
47520;DHT22;33252;48.122;11.538;2024-02-15T12:27:26;14.50;90.90
47520;DHT22;33252;48.122;11.538;2024-02-15T12:29:59;14.40;91.00
47520;DHT22;33252;48.122;11.538;2024-02-15T12:32:27;14.40;91.00
47520;DHT22;33252;48.122;11.538;2024-02-15T12:35:00;14.30;91.50
47520;DHT22;33252;48.122;11.538;2024-02-15T12:37:34;14.30;91.40
47520;DHT22;33252;48.122;11.538;2024-02-15T12:40:10;14.30;90.90
47520;DHT22;33252;48.122;11.538;2024-02-15T12:42:39;14.40;91.20
47520;DHT22;33252;48.122;11.538;2024-02-15T12:45:05;14.40;90.70
47520;DHT22;33252;48.122;11.538;2024-02-15T12:47:32;14.50;90.80
47520;DHT22;33252;48.122;11.538;2024-02-15T12:49:58;14.60;89.90
47520;DHT22;33252;48.122;11.538;2024-02-15T12:52:36;14.70;90.10
47520;DHT22;33252;48.122;11.538;2024-02-15T12:55:12;14.90;90.30
47520;DHT22;33252;48.122;11.538;2024-02-15T12:57:38;15.10;90.80
47520;DHT22;33252;48.122;11.538;2024-02-15T13:00:07;15.10;90.30
47520;DHT22;33252;48.122;11.538;2024-02-15T13:02:37;15.30;90.50
47520;DHT22;33252;48.122;11.538;2024-02-15T13:05:04;15.40;90.30
47520;DHT22;33252;48.122;11.538;2024-02-15T13:07:30;15.30;90.10
47520;DHT22;33252;48.122;11.538;2024-02-15T13:09:56;15.40;90.10
47520;DHT22;33252;48.122;11.538;2024-02-15T13:12:22;15.50;90.50
47520;DHT22;33252;48.122;11.538;2024-02-15T13:14:48;15.40;90.30
47520;DHT22;33252;48.122;11.538;2024-02-15T13:17:15;15.60;90.10
47520;DHT22;33252;48.122;11.538;2024-02-15T13:19:45;15.40;90.00
47520;DHT22;33252;48.122;11.538;2024-02-15T13:22:12;15.50;89.60
47520;DHT22;33252;48.122;11.538;2024-02-15T13:24:37;15.50;90.10
47520;DHT22;33252;48.122;11.538;2024-02-15T13:27:04;15.60;89.80
47520;DHT22;33252;48.122;11.538;2024-02-15T13:29:29;15.90;88.80
47520;DHT22;33252;48.122;11.538;2024-02-15T13:31:57;16.10;89.30
47520;DHT22;33252;48.122;11.538;2024-02-15T13:34:23;16.10;88.60
47520;DHT22;33252;48.122;11.538;2024-02-15T13:36:49;16.20;88.80
47520;DHT22;33252;48.122;11.538;2024-02-15T13:39:15;16.20;88.40
47520;DHT22;33252;48.122;11.538;2024-02-15T13:41:40;16.10;88.60
47520;DHT22;33252;48.122;11.538;2024-02-15T13:44:06;16.10;88.20
47520;DHT22;33252;48.122;11.538;2024-02-15T13:46:32;16.10;87.80
47520;DHT22;33252;48.122;11.538;2024-02-15T13:48:57;16.10;88.10
47520;DHT22;33252;48.122;11.538;2024-02-15T13:51:23;16.90;86.00
47520;DHT22;33252;48.122;11.538;2024-02-15T13:53:50;17.20;85.70
47520;DHT22;33252;48.122;11.538;2024-02-15T13:56:15;17.50;85.30
47520;DHT22;33252;48.122;11.538;2024-02-15T13:58:41;17.70;84.60
47520;DHT22;33252;48.122;11.538;2024-02-15T14:01:07;17.90;83.90
47520;DHT22;33252;48.122;11.538;2024-02-15T14:03:33;18.40;83.10
47520;DHT22;33252;48.122;11.538;2024-02-15T14:05:59;18.80;82.00
47520;DHT22;33252;48.122;11.538;2024-02-15T14:08:25;18.80;80.80
47520;DHT22;33252;48.122;11.538;2024-02-15T14:10:51;18.70;80.70
47520;DHT22;33252;48.122;11.538;2024-02-15T14:13:16;18.60;80.80
47520;DHT22;33252;48.122;11.538;2024-02-15T14:15:43;18.50;80.60
47520;DHT22;33252;48.122;11.538;2024-02-15T14:18:10;18.80;79.10
47520;DHT22;33252;48.122;11.538;2024-02-15T14:20:38;18.90;79.40
47520;DHT22;33252;48.122;11.538;2024-02-15T14:23:04;18.30;79.90
47520;DHT22;33252;48.122;11.538;2024-02-15T14:25:39;18.80;79.50
47520;DHT22;33252;48.122;11.538;2024-02-15T14:28:05;18.80;79.10
47520;DHT22;33252;48.122;11.538;2024-02-15T14:30:34;18.60;78.70
47520;DHT22;33252;48.122;11.538;2024-02-15T14:33:18;18.40;79.50
47520;DHT22;33252;48.122;11.538;2024-02-15T14:35:44;17.90;80.80
47520;DHT22;33252;48.122;11.538;2024-02-15T14:38:11;17.90;80.80
47520;DHT22;33252;48.122;11.538;2024-02-15T14:40:42;17.60;81.00
47520;DHT22;33252;48.122;11.538;2024-02-15T14:43:10;17.30;82.10
47520;DHT22;33252;48.122;11.538;2024-02-15T14:45:39;17.20;81.80
47520;DHT22;33252;48.122;11.538;2024-02-15T14:48:08;17.30;82.20
47520;DHT22;33252;48.122;11.538;2024-02-15T14:50:40;17.20;82.20
47520;DHT22;33252;48.122;11.538;2024-02-15T14:53:06;17.20;82.30
47520;DHT22;33252;48.122;11.538;2024-02-15T14:55:35;17.10;83.00
47520;DHT22;33252;48.122;11.538;2024-02-15T14:58:06;17.20;82.30
47520;DHT22;33252;48.122;11.538;2024-02-15T15:00:35;17.00;81.80
47520;DHT22;33252;48.122;11.538;2024-02-15T15:03:03;16.80;82.70
47520;DHT22;33252;48.122;11.538;2024-02-15T15:05:28;16.80;83.30
47520;DHT22;33252;48.122;11.538;2024-02-15T15:08:13;16.70;83.10
47520;DHT22;33252;48.122;11.538;2024-02-15T15:10:57;16.60;83.80
47520;DHT22;33252;48.122;11.538;2024-02-15T15:13:41;16.60;83.30
47520;DHT22;33252;48.122;11.538;2024-02-15T15:16:06;16.30;84.00
47520;DHT22;33252;48.122;11.538;2024-02-15T15:18:32;16.20;84.70
47520;DHT22;33252;48.122;11.538;2024-02-15T15:21:02;15.90;85.50
47520;DHT22;33252;48.122;11.538;2024-02-15T15:23:28;15.80;85.80
47520;DHT22;33252;48.122;11.538;2024-02-15T15:26:02;15.60;86.20
47520;DHT22;33252;48.122;11.538;2024-02-15T15:28:28;15.60;85.90
47520;DHT22;33252;48.122;11.538;2024-02-15T15:30:54;15.50;86.40
47520;DHT22;33252;48.122;11.538;2024-02-15T15:33:20;15.50;86.80
47520;DHT22;33252;48.122;11.538;2024-02-15T15:35:46;15.40;87.60
47520;DHT22;33252;48.122;11.538;2024-02-15T15:38:12;15.20;87.10
47520;DHT22;33252;48.122;11.538;2024-02-15T15:40:38;15.20;87.70